TimeEDT,TemperatureF,Dew PointF,Humidity,Sea Level PressureIn,VisibilityMPH,Wind Direction,Wind SpeedMPH,Gust SpeedMPH,PrecipitationIn,Events,Conditions,WindDirDegrees,DateUTC
12:53 AM,69.1,64.0,84,29.86,10.0,North,-9999.0,-,N/A,,Clear,0,2013-06-17 04:53:00
1:53 AM,66.0,63.0,90,29.87,9.0,North,-9999.0,-,N/A,,Clear,0,2013-06-17 05:53:00
2:53 AM,66.0,64.0,93,29.86,7.0,North,-9999.0,-,N/A,,Clear,0,2013-06-17 06:53:00
3:53 AM,66.0,63.0,90,29.87,7.0,North,-9999.0,-,N/A,,Clear,0,2013-06-17 07:53:00
4:53 AM,64.9,63.0,93,29.88,3.0,North,-9999.0,-,N/A,,Clear,0,2013-06-17 08:53:00
5:53 AM,64.9,63.0,93,29.89,4.0,North,-9999.0,-,N/A,,Scattered Clouds,0,2013-06-17 09:53:00
6:53 AM,68.0,64.0,87,29.90,5.0,Calm,Calm,-,N/A,,Partly Cloudy,0,2013-06-17 10:53:00
7:53 AM,71.1,64.9,81,29.91,6.0,Calm,Calm,-,N/A,,Haze,0,2013-06-17 11:53:00
8:53 AM,75.0,64.9,71,29.91,9.0,SW,5.8,-,N/A,,Clear,230,2013-06-17 12:53:00
9:53 AM,78.1,64.0,62,29.90,10.0,WSW,9.2,-,N/A,,Clear,250,2013-06-17 13:53:00
10:53 AM,81.0,64.9,58,29.88,10.0,WNW,9.2,-,N/A,,Clear,290,2013-06-17 14:53:00
11:53 AM,82.0,64.9,56,29.87,10.0,North,-9999.0,-,N/A,,Partly Cloudy,0,2013-06-17 15:53:00
12:53 PM,84.0,63.0,49,29.88,10.0,SW,9.2,-,N/A,,Scattered Clouds,230,2013-06-17 16:53:00
1:53 PM,84.9,64.0,49,29.86,9.0,North,-9999.0,-,N/A,,Partly Cloudy,0,2013-06-17 17:53:00
2:53 PM,86.0,63.0,46,29.84,9.0,WSW,13.8,-,N/A,,Partly Cloudy,250,2013-06-17 18:53:00
3:53 PM,86.0,64.0,48,29.83,9.0,WSW,13.8,-,N/A,,Partly Cloudy,250,2013-06-17 19:53:00
4:53 PM,84.0,63.0,49,29.82,9.0,WSW,13.8,-,N/A,,Scattered Clouds,250,2013-06-17 20:53:00
5:53 PM,77.0,57.9,52,29.84,10.0,North,11.5,-,0.00,,Mostly Cloudy,360,2013-06-17 21:53:00
6:53 PM,78.1,62.1,58,29.84,10.0,WNW,4.6,-,N/A,,Clear,300,2013-06-17 22:53:00
7:53 PM,75.9,64.9,69,29.86,10.0,SW,4.6,-,N/A,,Clear,230,2013-06-17 23:53:00
8:53 PM,75.9,62.1,62,29.86,10.0,SW,9.2,-,N/A,,Clear,220,2013-06-18 00:53:00
9:53 PM,73.9,61.0,64,29.88,10.0,North,-9999.0,-,N/A,,Clear,0,2013-06-18 01:53:00
10:53 PM,71.1,62.1,73,29.90,10.0,North,-9999.0,-,N/A,,Clear,0,2013-06-18 02:53:00
11:53 PM,71.1,63.0,75,29.89,10.0,North,-9999.0,-,N/A,,Clear,0,2013-06-18 03:53:00